Time;durP1;ratioP1;P1;durP2;ratioP2;P2;SDS_P1;SDS_P2;PMS_P1;PMS_P2;Temp;Humidity;BMP_temperature;BMP_pressure;BME280_temperature;BME280_humidity;BME280_pressure;Samples;Min_cycle;Max_cycle;Signal;HPM_P1;HPM_P2
2022/08/02 00:01:58;;;;;;;4.00;3.30;;;;;;;18.38;84.02;98644.91;1709540;83;28351;-59
2022/08/02 00:04:24;;;;;;;5.00;3.33;;;;;;;18.40;83.76;98642.55;1709287;83;25671;-59
2022/08/02 00:06:50;;;;;;;4.67;3.40;;;;;;;18.33;83.75;98647.19;1719827;81;25722;-59
2022/08/02 00:09:17;;;;;;;4.20;3.80;;;;;;;18.32;83.69;98642.22;1709956;82;26232;-59
2022/08/02 00:11:43;;;;;;;5.10;3.27;;;;;;;18.32;83.71;98650.54;1709943;83;25569;-59
2022/08/02 00:14:09;;;;;;;3.45;2.92;;;;;;;18.23;83.80;98646.61;1709521;83;27419;-58
2022/08/02 00:16:35;;;;;;;4.60;3.20;;;;;;;18.14;83.79;98637.11;1710317;82;25667;-59
2022/08/02 00:19:02;;;;;;;5.25;3.20;;;;;;;18.09;84.14;98643.51;1709782;83;25437;-58
2022/08/02 00:21:28;;;;;;;4.58;3.40;;;;;;;18.06;84.19;98640.31;1709385;83;25479;-59
2022/08/02 00:23:55;;;;;;;5.08;3.25;;;;;;;18.00;84.29;98645.12;1709526;83;25687;-60
2022/08/02 00:26:21;;;;;;;3.80;3.42;;;;;;;18.06;84.54;98651.98;1727525;82;27406;-59
2022/08/02 00:28:48;;;;;;;3.80;3.33;;;;;;;18.13;84.31;98647.20;1730812;82;25432;-59
2022/08/02 00:31:13;;;;;;;4.37;3.55;;;;;;;18.13;84.15;98647.20;1729612;83;25491;-59
2022/08/02 00:33:40;;;;;;;4.25;3.60;;;;;;;18.11;84.26;98647.57;1729229;83;25484;-60
2022/08/02 00:36:07;;;;;;;4.08;3.58;;;;;;;18.12;84.14;98652.52;1719537;82;26689;-60
2022/08/02 00:38:33;;;;;;;4.10;3.52;;;;;;;18.11;84.19;98657.28;1709428;83;27329;-58
2022/08/02 00:40:59;;;;;;;4.87;3.30;;;;;;;18.14;84.32;98654.34;1709701;83;25627;-58
2022/08/02 00:43:25;;;;;;;6.03;3.40;;;;;;;18.16;84.30;98657.55;1709806;83;25702;-59
2022/08/02 00:45:51;;;;;;;3.30;3.00;;;;;;;18.20;84.39;98652.89;1720893;81;25658;-59
2022/08/02 00:48:18;;;;;;;5.30;3.20;;;;;;;18.16;84.28;98652.81;1740879;82;25417;-58
2022/08/02 00:50:44;;;;;;;5.25;3.55;;;;;;;18.17;84.42;98659.95;1744499;82;27414;-59
2022/08/02 00:53:10;;;;;;;3.37;3.08;;;;;;;18.17;84.54;98663.33;1744360;82;25898;-59
2022/08/02 00:55:38;;;;;;;4.37;3.00;;;;;;;18.20;84.32;98664.55;1744313;80;25621;-59
2022/08/02 00:58:05;;;;;;;3.95;3.42;;;;;;;18.24;84.25;98666.81;1744418;81;25452;-59
2022/08/02 01:00:31;;;;;;;4.03;3.42;;;;;;;18.24;84.43;98664.85;1744771;82;25665;-60
2022/08/02 01:02:57;;;;;;;4.55;3.20;;;;;;;18.32;84.27;98665.80;1744329;82;29435;-59
2022/08/02 01:05:23;;;;;;;4.00;2.98;;;;;;;18.40;84.22;98662.58;1743883;80;25818;-58
2022/08/02 01:07:50;;;;;;;3.90;3.27;;;;;;;18.45;84.02;98661.48;1743018;82;25473;-59
2022/08/02 01:10:16;;;;;;;4.00;2.87;;;;;;;18.44;83.82;98667.61;1744524;81;25548;-59
2022/08/02 01:12:43;;;;;;;4.58;3.27;;;;;;;18.44;83.88;98660.67;1744579;82;25639;-59
2022/08/02 01:15:12;;;;;;;3.27;2.98;;;;;;;18.48;83.62;98667.69;1744323;81;27619;-59
2022/08/02 01:17:55;;;;;;;4.83;3.52;;;;;;;18.45;83.67;98665.04;1715464;82;26002;-58
2022/08/02 01:20:56;;;;;;;4.78;2.98;;;;;;;18.43;83.48;98665.41;1722185;80;25508;-60
2022/08/02 01:23:48;;;;;;;4.45;3.00;;;;;;;18.39;83.53;98669.31;1744572;82;25666;-58
2022/08/02 01:26:35;;;;;;;3.75;3.10;;;;;;;18.35;83.54;98672.58;1708913;83;25739;-58
2022/08/02 01:29:18;;;;;;;3.83;2.87;;;;;;;18.30;83.39;98670.90;1708980;83;27413;-59
2022/08/02 01:31:59;;;;;;;3.67;2.80;;;;;;;18.26;83.34;98660.33;1709473;83;25552;-60
2022/08/02 01:34:43;;;;;;;;;;;;;;;18.22;83.43;98670.55;1712270;83;25608;-58
2022/08/02 01:37:44;;;;;;;4.72;3.00;;;;;;;18.16;83.44;98672.80;1709136;83;26140;-59
2022/08/02 01:40:16;;;;;;;4.17;2.98;;;;;;;18.10;83.72;98680.58;1709609;83;25590;-59
2022/08/02 01:42:46;;;;;;;4.72;3.05;;;;;;;18.10;83.76;98673.64;1709085;83;27545;-58
2022/08/02 01:45:18;;;;;;;4.33;3.85;;;;;;;18.10;83.64;98668.10;1709510;83;25776;-58
2022/08/02 01:47:52;;;;;;;4.00;3.55;;;;;;;18.08;83.45;98662.70;1709119;83;25650;-58
2022/08/02 01:50:33;;;;;;;5.03;3.05;;;;;;;18.03;83.53;98670.16;1709443;83;25629;-58
2022/08/02 01:53:10;;;;;;;4.90;3.20;;;;;;;17.99;83.65;98663.72;1709437;83;25745;-58
2022/08/02 01:55:44;;;;;;;4.20;3.50;;;;;;;17.97;83.55;98666.06;1710246;82;27814;-57
2022/08/02 01:58:18;;;;;;;5.65;3.90;;;;;;;17.90;83.60;98672.25;1678444;85;25540;-59
2022/08/02 02:00:49;;;;;;;4.50;3.60;;;;;;;17.84;83.96;98672.31;1680976;85;25655;-57
2022/08/02 02:03:30;;;;;;;3.58;3.20;;;;;;;17.79;84.10;98674.00;1678451;85;26429;-58
2022/08/02 02:05:58;;;;;;;5.40;3.83;;;;;;;17.74;84.45;98675.66;1683200;82;25583;-58
2022/08/02 02:08:31;;;;;;;5.05;3.80;;;;;;;17.66;84.37;98673.30;1704968;84;28066;-57
2022/08/02 02:10:59;;;;;;;4.20;3.80;;;;;;;17.63;84.46;98676.80;1704986;83;25847;-58
2022/08/02 02:13:27;;;;;;;4.20;3.70;;;;;;;17.62;84.49;98678.75;1704997;83;25627;-58
2022/08/02 02:15:55;;;;;;;4.15;3.60;;;;;;;17.62;84.37;98677.97;1705120;82;25927;-58
2022/08/02 02:18:24;;;;;;;4.67;4.28;;;;;;;17.60;84.49;98681.67;1687735;83;25625;-58
2022/08/02 02:20:51;;;;;;;6.10;4.10;;;;;;;17.57;84.63;98690.13;1682966;85;27431;-57
2022/08/02 02:23:18;;;;;;;5.10;3.90;;;;;;;17.55;84.73;98688.30;1676343;85;25673;-59
2022/08/02 02:25:45;;;;;;;4.83;3.90;;;;;;;17.52;84.70;98689.02;1676100;85;25634;-57
2022/08/02 02:28:21;;;;;;;5.00;4.50;;;;;;;17.52;84.67;98692.59;1676540;84;25736;-58
2022/08/02 02:30:50;;;;;;;4.60;4.12;;;;;;;17.51;84.67;98689.62;1677318;85;25432;-59
2022/08/02 02:33:21;;;;;;;5.35;4.00;;;;;;;17.50;84.90;98688.59;1677832;85;28307;-58
2022/08/02 02:35:51;;;;;;;5.08;4.35;;;;;;;17.52;84.75;98688.45;1677744;84;25709;-58
2022/08/02 02:38:19;;;;;;;5.43;4.20;;;;;;;17.52;84.66;98694.55;1677738;84;25752;-58
2022/08/02 02:40:48;;;;;;;5.55;4.30;;;;;;;17.51;84.94;98686.84;1676318;85;25422;-58
2022/08/02 02:43:16;;;;;;;6.10;4.10;;;;;;;17.53;84.88;98676.79;1676827;85;25591;-58
2022/08/02 02:45:44;;;;;;;4.60;3.60;;;;;;;17.53;84.83;98677.57;1676452;85;27338;-58
2022/08/02 02:48:13;;;;;;;7.90;4.35;;;;;;;17.52;84.86;98680.70;1677488;82;26418;-58
2022/08/02 02:50:41;;;;;;;5.75;4.20;;;;;;;17.52;84.93;98676.55;1726472;82;25494;-58
2022/08/02 02:53:09;;;;;;;4.58;3.95;;;;;;;17.52;84.87;98672.39;1726581;82;25639;-58
2022/08/02 02:55:36;;;;;;;6.55;4.62;;;;;;;17.50;84.83;98683.83;1726464;83;25639;-58
2022/08/02 02:58:03;;;;;;;5.20;3.98;;;;;;;17.45;84.97;98683.31;1725920;82;27103;-58
2022/08/02 03:03:16;;;;;;;5.62;4.10;;;;;;;17.37;86.40;98694.23;1724975;81;25616;-58
2022/08/02 03:05:42;;;;;;;8.05;4.12;;;;;;;17.33;86.17;98693.35;1725802;83;25660;-58
2022/08/02 03:08:08;;;;;;;4.83;4.00;;;;;;;17.33;86.53;98693.35;1726400;83;25904;-58
2022/08/02 03:10:34;;;;;;;4.15;3.75;;;;;;;17.34;86.29;98693.56;1724977;82;27607;-58
2022/08/02 03:13:01;;;;;;;4.20;3.67;;;;;;;17.38;86.22;98696.40;1724533;82;27157;-58
2022/08/02 03:15:28;;;;;;;4.70;3.83;;;;;;;17.42;86.16;98684.24;1714634;83;25512;-58
2022/08/02 03:17:54;;;;;;;4.17;3.77;;;;;;;17.47;86.10;98681.78;1714697;83;26421;-58
2022/08/02 03:20:21;;;;;;;5.75;4.40;;;;;;;17.53;86.03;98685.88;1724919;83;26320;-58
2022/08/02 03:22:49;;;;;;;5.15;4.10;;;;;;;17.57;86.00;98683.20;1724855;82;27476;-58
2022/08/02 03:25:17;;;;;;;5.53;4.08;;;;;;;17.61;85.91;98686.04;1724353;82;26643;-58
2022/08/02 03:27:43;;;;;;;4.47;4.00;;;;;;;17.67;86.02;98684.60;1724627;82;25722;-58
2022/08/02 03:30:12;;;;;;;6.03;4.22;;;;;;;17.75;85.92;98689.16;1724734;83;25511;-58
2022/08/02 03:32:41;;;;;;;5.47;4.10;;;;;;;17.81;86.04;98695.20;1724953;82;25505;-58
2022/08/02 03:35:11;;;;;;;5.45;3.80;;;;;;;17.87;85.96;98692.95;1724295;83;27541;-58
2022/08/02 03:37:38;;;;;;;5.15;3.75;;;;;;;17.93;85.82;98697.86;1726501;83;25683;-58
2022/08/02 03:40:09;;;;;;;5.05;3.83;;;;;;;17.98;85.82;98698.16;1726178;83;25498;-59
2022/08/02 03:42:35;;;;;;;4.65;3.77;;;;;;;18.05;85.83;98697.52;1726478;82;25620;-58
2022/08/02 03:45:04;;;;;;;5.53;4.50;;;;;;;18.10;85.55;98693.05;1725719;83;25502;-58
2022/08/02 03:47:32;;;;;;;5.33;3.98;;;;;;;18.16;85.41;98707.46;1725015;82;28210;-58
2022/08/02 03:49:59;;;;;;;4.85;4.15;;;;;;;18.23;85.35;98713.17;1705609;83;25566;-58
2022/08/02 03:52:27;;;;;;;7.47;3.92;;;;;;;18.28;85.24;98704.55;1699919;83;25467;-58
2022/08/02 03:54:53;;;;;;;4.75;4.20;;;;;;;18.30;85.30;98713.32;1699701;83;26124;-59
2022/08/02 03:57:20;;;;;;;5.50;4.62;;;;;;;18.33;85.24;98717.93;1699415;83;25621;-58
2022/08/02 03:59:46;;;;;;;5.62;4.42;;;;;;;18.39;85.10;98717.86;1723278;83;27607;-58
2022/08/02 04:02:13;;;;;;;5.20;4.47;;;;;;;18.43;85.05;98722.89;1726782;83;25619;-59
2022/08/02 04:04:39;;;;;;;5.60;4.00;;;;;;;18.45;84.97;98723.30;1727342;82;25511;-59
2022/08/02 04:07:05;;;;;;;4.50;3.92;;;;;;;18.49;84.92;98725.59;1727230;82;26408;-58
2022/08/02 04:09:32;;;;;;;7.22;3.75;;;;;;;18.55;84.77;98729.67;1726787;82;25684;-59
2022/08/02 04:11:58;;;;;;;4.53;3.67;;;;;;;18.58;84.67;98735.64;1729183;81;28440;-59
2022/08/02 04:14:26;;;;;;;4.08;3.67;;;;;;;18.59;84.82;98738.05;1728800;83;25641;-58
2022/08/02 04:17:00;;;;;;;4.78;3.65;;;;;;;18.58;84.92;98736.45;1728693;83;25709;-59
2022/08/02 04:19:41;;;;;;;5.75;3.77;;;;;;;18.65;84.76;98738.58;1727388;81;25783;-58
2022/08/02 04:22:18;;;;;;;4.12;3.72;;;;;;;18.71;84.82;98734.31;1727071;82;25396;-58
2022/08/02 04:24:51;;;;;;;5.40;3.83;;;;;;;18.72;84.77;98742.06;1727116;83;27409;-58
2022/08/02 04:27:19;;;;;;;5.08;3.70;;;;;;;18.74;84.53;98748.84;1727403;82;25499;-59
2022/08/02 04:29:47;;;;;;;5.37;3.92;;;;;;;18.80;84.58;98754.32;1727786;82;25684;-59
2022/08/02 04:32:15;;;;;;;4.30;3.90;;;;;;;18.87;84.53;98751.47;1728895;83;26203;-59
2022/08/02 04:34:43;;;;;;;4.95;3.83;;;;;;;18.90;84.27;98751.55;1728676;83;25438;-59
2022/08/02 04:37:13;;;;;;;5.92;3.98;;;;;;;18.89;84.25;98757.47;1729117;82;27529;-59
2022/08/02 04:39:42;;;;;;;4.17;3.77;;;;;;;18.84;84.07;98754.40;1705734;83;25816;-58
2022/08/02 04:42:09;;;;;;;5.43;3.90;;;;;;;18.81;84.25;98755.95;1727444;82;25639;-59
2022/08/02 04:44:35;;;;;;;5.90;4.00;;;;;;;18.84;84.31;98757.75;1727505;83;25593;-59
2022/08/02 04:47:04;;;;;;;6.85;3.83;;;;;;;18.84;84.36;98749.42;1727480;82;25514;-59
2022/08/02 04:49:31;;;;;;;5.45;4.00;;;;;;;18.81;84.45;98759.30;1720436;83;27022;-59
2022/08/02 04:51:56;;;;;;;4.75;3.62;;;;;;;18.85;84.48;98757.38;1707041;82;26383;-59
2022/08/02 04:54:24;;;;;;;4.97;3.83;;;;;;;18.89;84.70;98758.27;1734469;81;25726;-59
2022/08/02 04:56:51;;;;;;;4.40;4.00;;;;;;;18.91;84.33;98764.25;1734847;82;26305;-59
2022/08/02 04:59:17;;;;;;;4.20;3.65;;;;;;;18.98;84.16;98765.55;1716937;82;25726;-59
2022/08/02 05:01:44;;;;;;;6.50;3.87;;;;;;;18.95;83.89;98757.38;1706067;82;27651;-58
2022/08/02 05:04:10;;;;;;;4.80;3.47;;;;;;;18.96;84.22;98763.14;1704753;82;25737;-60
2022/08/02 05:06:37;;;;;;;7.72;3.55;;;;;;;18.95;84.11;98762.94;1670583;83;25673;-59
2022/08/02 05:09:03;;;;;;;4.28;3.87;;;;;;;18.95;84.29;98769.88;1620819;86;26255;-58
2022/08/02 05:11:29;;;;;;;4.10;3.70;;;;;;;18.96;84.25;98770.08;1629034;87;25695;-59
2022/08/02 05:13:55;;;;;;;6.62;3.72;;;;;;;18.99;83.89;98776.30;1629143;87;27617;-59
2022/08/02 05:16:21;;;;;;;6.25;3.87;;;;;;;18.95;84.20;98778.20;1628648;88;25756;-60
2022/08/02 05:18:49;;;;;;;4.25;3.50;;;;;;;18.98;84.35;98778.86;1627666;86;25725;-59
2022/08/02 05:21:15;;;;;;;4.60;3.90;;;;;;;19.05;84.31;98782.34;1628793;87;25719;-58
2022/08/02 05:23:42;;;;;;;4.62;3.70;;;;;;;19.13;84.36;98783.31;1629069;86;26476;-58
2022/08/02 05:26:08;;;;;;;5.30;3.80;;;;;;;19.17;84.37;98775.86;1629133;86;27591;-59
2022/08/02 05:28:34;;;;;;;4.08;3.50;;;;;;;19.19;83.93;98780.45;1624130;88;25708;-60
2022/08/02 05:31:00;;;;;;;4.92;3.83;;;;;;;19.25;84.26;98785.10;1627782;87;25751;-59
2022/08/02 05:33:26;;;;;;;4.33;3.40;;;;;;;19.32;83.49;98782.47;1629713;88;25502;-58
2022/08/02 05:35:52;;;;;;;6.10;3.95;;;;;;;19.34;83.22;98788.44;1630136;87;25448;-59
2022/08/02 05:38:19;;;;;;;4.58;3.52;;;;;;;19.41;83.42;98791.38;1629755;86;29534;-59
2022/08/02 05:40:45;;;;;;;4.28;3.60;;;;;;;19.43;82.78;98785.44;1629579;88;27096;-59
2022/08/02 05:43:14;;;;;;;4.97;3.83;;;;;;;19.42;82.82;98789.37;1630092;88;25673;-59
2022/08/02 05:45:41;;;;;;;4.65;3.52;;;;;;;19.49;82.62;98799.22;1629610;88;25827;-58
2022/08/02 05:48:08;;;;;;;4.45;4.05;;;;;;;19.51;82.83;98799.66;1629850;86;25424;-58
2022/08/02 05:50:38;;;;;;;5.35;3.77;;;;;;;19.54;82.20;98805.05;1635213;86;27908;-58
2022/08/02 05:53:29;;;;;;;4.62;3.67;;;;;;;19.55;82.32;98808.85;1639446;87;25969;-59
2022/08/02 05:56:10;;;;;;;4.28;3.87;;;;;;;19.61;81.65;98803.80;1638575;87;25470;-59
2022/08/02 05:58:56;;;;;;;;;;;;;;;19.60;81.83;98809.12;1637912;87;25533;-58
2022/08/02 06:01:42;;;;;;;5.37;3.72;;;;;;;19.67;81.78;98808.45;1637337;86;25509;-59
2022/08/02 06:04:12;;;;;;;5.90;3.70;;;;;;;19.66;81.92;98813.20;1636388;86;27667;-58
2022/08/02 06:06:42;;;;;;;6.17;3.27;;;;;;;19.76;81.67;98817.92;1639494;87;25490;-59
2022/08/02 06:09:15;;;;;;;5.33;3.52;;;;;;;19.80;81.51;98818.78;1639038;86;25665;-59
2022/08/02 06:11:50;;;;;;;4.12;3.50;;;;;;;19.85;81.43;98820.44;1614461;88;25519;-58
2022/08/02 06:14:18;;;;;;;4.62;3.47;;;;;;;19.96;81.33;98813.66;1614210;88;25490;-59
2022/08/02 06:16:45;;;;;;;4.03;3.47;;;;;;;20.06;81.21;98813.05;1614361;88;27284;-59
2022/08/02 06:19:12;;;;;;;7.25;3.70;;;;;;;20.13;80.42;98816.53;1619957;86;25453;-59
2022/08/02 06:21:41;;;;;;;4.25;3.85;;;;;;;20.19;80.70;98817.81;1639055;87;25720;-59
2022/08/02 06:24:10;;;;;;;5.75;3.72;;;;;;;20.28;80.33;98817.54;1639288;87;25511;-59
2022/08/02 06:26:37;;;;;;;5.37;3.80;;;;;;;20.39;80.97;98823.27;1639460;86;25687;-59
2022/08/02 06:29:04;;;;;;;6.55;4.50;;;;;;;20.48;79.70;98823.78;1639197;87;27480;-59
2022/08/02 06:31:31;;;;;;;6.35;3.90;;;;;;;20.64;80.14;98825.58;1639118;87;25453;-59
2022/08/02 06:33:57;;;;;;;3.85;3.47;;;;;;;20.88;79.60;98829.86;1639127;87;25705;-59
2022/08/02 06:36:47;;;;;;;4.92;3.80;;;;;;;21.14;78.03;98831.55;1638557;86;25587;-59
2022/08/02 06:39:33;;;;;;;6.43;3.07;;;;;;;21.40;78.42;98825.64;1634661;87;25711;-60
2022/08/02 06:42:04;;;;;;;3.40;3.10;;;;;;;21.73;77.83;98832.91;1635287;87;28374;-59
2022/08/02 06:44:31;;;;;;;5.60;3.85;;;;;;;21.99;77.12;98832.55;1635876;86;25686;-59
2022/08/02 06:46:58;;;;;;;6.58;3.37;;;;;;;22.20;75.58;98834.69;1635435;87;25671;-59
2022/08/02 06:49:24;;;;;;;4.22;3.52;;;;;;;22.39;75.95;98840.57;1635413;87;25668;-59
2022/08/02 06:51:51;;;;;;;3.47;3.17;;;;;;;22.58;75.00;98837.31;1617301;87;25734;-59
2022/08/02 06:54:20;;;;;;;4.10;3.47;;;;;;;22.79;73.93;98833.00;1616860;88;27472;-59
2022/08/02 06:56:46;;;;;;;4.37;3.40;;;;;;;22.93;74.31;98835.87;1620985;87;25922;-59
2022/08/02 06:59:12;;;;;;;4.87;3.67;;;;;;;23.09;74.66;98838.11;1620684;88;25641;-59
2022/08/02 07:01:39;;;;;;;3.62;3.22;;;;;;;23.18;72.85;98831.55;1620938;87;25945;-59
2022/08/02 07:04:06;;;;;;;5.37;3.95;;;;;;;23.16;71.89;98834.73;1620952;88;25427;-58
2022/08/02 07:06:33;;;;;;;4.10;3.40;;;;;;;23.11;72.21;98828.13;1620771;87;27284;-59
2022/08/02 07:09:00;;;;;;;4.17;3.58;;;;;;;23.17;70.58;98831.36;1620848;87;25470;-59
2022/08/02 07:11:27;;;;;;;3.92;3.58;;;;;;;23.26;70.95;98823.36;1620724;88;25614;-59
2022/08/02 07:13:53;;;;;;;4.10;3.70;;;;;;;23.37;70.63;98833.20;1620828;88;25683;-59
2022/08/02 07:16:20;;;;;;;4.00;3.60;;;;;;;23.34;70.46;98836.76;1616076;87;25772;-59
2022/08/02 07:18:47;;;;;;;4.92;3.30;;;;;;;23.36;70.62;98831.58;1622252;87;27412;-59
2022/08/02 07:21:13;;;;;;;4.22;3.83;;;;;;;23.36;70.83;98844.16;1636396;86;25639;-59
2022/08/02 07:23:40;;;;;;;5.17;3.87;;;;;;;23.43;70.00;98840.63;1620980;87;25599;-59
2022/08/02 07:26:07;;;;;;;6.55;3.92;;;;;;;23.41;68.91;98840.20;1620878;87;25593;-60
2022/08/02 07:28:33;;;;;;;4.40;4.00;;;;;;;23.42;69.33;98842.61;1620919;88;25446;-59
2022/08/02 07:31:00;;;;;;;4.45;4.05;;;;;;;23.46;69.83;98841.81;1619165;87;27586;-59
2022/08/02 07:33:26;;;;;;;4.83;4.10;;;;;;;23.59;69.38;98844.42;1619757;88;25450;-59
2022/08/02 07:35:53;;;;;;;4.30;3.95;;;;;;;23.65;69.38;98850.41;1620436;87;25432;-59
2022/08/02 07:38:23;;;;;;;5.03;3.90;;;;;;;23.62;67.26;98845.02;1617296;88;26205;-59
2022/08/02 07:40:49;;;;;;;5.95;4.12;;;;;;;23.68;68.63;98847.63;1616807;88;25661;-59
2022/08/02 07:43:15;;;;;;;3.80;3.42;;;;;;;23.82;68.22;98847.42;1616821;88;27504;-59
2022/08/02 07:45:42;;;;;;;6.08;3.90;;;;;;;23.91;67.97;98850.63;1617232;88;25425;-60
2022/08/02 07:48:09;;;;;;;5.00;3.85;;;;;;;24.13;67.99;98852.02;1622136;88;25689;-59
2022/08/02 07:50:36;;;;;;;5.17;4.33;;;;;;;24.10;66.07;98850.61;1626238;87;25632;-59
2022/08/02 07:53:03;;;;;;;6.72;4.62;;;;;;;24.14;66.76;98852.23;1639360;87;25736;-61
2022/08/02 07:55:30;;;;;;;6.15;4.72;;;;;;;24.15;66.71;98853.05;1639238;87;27425;-59
2022/08/02 07:57:57;;;;;;;4.72;4.33;;;;;;;24.08;65.87;98850.20;1639098;87;25619;-59
2022/08/02 08:00:23;;;;;;;5.62;4.33;;;;;;;24.09;66.14;98844.82;1639231;87;25667;-60
2022/08/02 08:02:50;;;;;;;4.92;4.53;;;;;;;24.15;67.01;98851.64;1639279;87;25410;-59
2022/08/02 08:05:17;;;;;;;6.75;5.03;;;;;;;24.27;66.69;98845.60;1640757;85;25613;-59
2022/08/02 08:07:44;;;;;;;6.33;5.33;;;;;;;24.36;65.92;98850.00;1640730;87;27486;-60
2022/08/02 08:10:11;;;;;;;6.10;5.50;;;;;;;24.39;65.56;98854.20;1640420;87;27247;-59
2022/08/02 08:14:32;;;;;;;5.85;5.35;;;;;;;24.50;65.91;98853.38;1640600;87;25697;-60
2022/08/02 08:16:09;;;;;;;6.70;6.00;;;;;;;24.52;64.93;98855.95;1627957;87;25624;-59
2022/08/02 08:18:36;;;;;;;5.70;5.20;;;;;;;24.59;64.52;98858.54;1640794;87;25608;-60
2022/08/02 08:21:03;;;;;;;5.42;4.75;;;;;;;24.53;65.25;98860.97;1640619;87;27593;-59
2022/08/02 08:23:30;;;;;;;6.42;5.80;;;;;;;24.56;65.04;98858.14;1640632;87;25475;-59
2022/08/02 08:25:56;;;;;;;6.75;5.92;;;;;;;24.57;64.63;98856.14;1640663;87;25449;-59
2022/08/02 08:28:23;;;;;;;7.25;6.50;;;;;;;24.72;65.20;98857.52;1640786;87;25642;-59
2022/08/02 08:30:50;;;;;;;6.78;6.08;;;;;;;25.04;64.79;98856.61;1640681;87;25616;-59
2022/08/02 08:33:16;;;;;;;7.03;6.30;;;;;;;25.06;61.83;98859.19;1640812;87;27430;-59
2022/08/02 08:35:43;;;;;;;7.03;6.30;;;;;;;25.29;62.11;98862.07;1640455;87;25647;-62
2022/08/02 08:38:10;;;;;;;5.95;5.45;;;;;;;25.62;62.81;98857.66;1640623;87;25754;-60
2022/08/02 08:40:38;;;;;;;6.75;6.15;;;;;;;25.68;59.30;98861.62;1640579;87;26006;-61
2022/08/02 08:43:05;;;;;;;6.60;6.00;;;;;;;25.68;61.34;98860.23;1640609;87;25729;-59
2022/08/02 08:45:32;;;;;;;9.00;5.97;;;;;;;26.11;60.84;98863.91;1640707;87;27465;-63
2022/08/02 08:48:14;;;;;;;6.97;6.35;;;;;;;26.58;58.73;98860.44;1640577;87;25422;-64
2022/08/02 08:50:54;;;;;;;7.37;6.70;;;;;;;26.85;58.32;98867.55;1640239;87;25474;-60
2022/08/02 08:53:25;;;;;;;6.80;6.28;;;;;;;27.26;58.06;98858.80;1636913;87;26281;-61
2022/08/02 08:55:56;;;;;;;6.90;6.30;;;;;;;27.79;57.39;98864.69;1640454;87;25503;-60
2022/08/02 08:58:23;;;;;;;6.00;5.40;;;;;;;27.78;55.48;98869.52;1640550;87;26863;-61
2022/08/02 09:00:50;;;;;;;6.70;6.08;;;;;;;27.60;55.22;98873.22;1640514;87;25745;-61
2022/08/02 09:03:17;;;;;;;6.72;6.12;;;;;;;27.33;54.67;98879.02;1640699;87;25608;-59
2022/08/02 09:05:45;;;;;;;7.55;6.70;;;;;;;27.10;55.62;98879.73;1640646;87;25603;-59
2022/08/02 09:08:13;;;;;;;7.08;6.40;;;;;;;26.95;54.80;98878.48;1640451;87;25774;-59
2022/08/02 09:10:44;;;;;;;7.20;6.50;;;;;;;27.17;55.18;98871.98;1640315;87;27405;-59
2022/08/02 09:13:21;;;;;;;7.00;6.35;;;;;;;27.55;55.61;98870.27;1640837;87;25627;-59
2022/08/02 09:16:04;;;;;;;7.35;6.17;;;;;;;27.70;52.48;98861.62;1638728;87;25493;-59
2022/08/02 09:18:38;;;;;;;7.00;6.40;;;;;;;27.55;52.07;98869.64;1640771;87;25883;-59
2022/08/02 09:21:07;;;;;;;7.03;6.33;;;;;;;27.88;54.00;98870.58;1640729;87;25625;-59
2022/08/02 09:23:38;;;;;;;7.40;6.80;;;;;;;28.18;50.22;98870.89;1640621;87;28238;-59
2022/08/02 09:26:23;;;;;;;7.12;6.45;;;;;;;28.20;51.06;98874.69;1639984;87;25962;-59
2022/08/02 09:28:54;;;;;;;7.42;6.83;;;;;;;28.17;50.72;98879.95;1640381;87;25714;-60
2022/08/02 09:31:23;;;;;;;8.15;7.45;;;;;;;28.25;52.39;98879.20;1639638;87;26170;-59
2022/08/02 09:33:58;;;;;;;8.00;7.28;;;;;;;28.54;50.57;98875.08;1641066;87;25442;-59
2022/08/02 09:36:27;;;;;;;6.70;5.95;;;;;;;28.78;51.17;98881.45;1640795;87;27604;-59
2022/08/02 09:39:03;;;;;;;6.45;5.80;;;;;;;29.11;50.55;98885.66;1640314;87;25672;-59
2022/08/02 09:41:33;;;;;;;6.62;6.00;;;;;;;29.45;48.95;98883.72;1640553;87;25453;-59
2022/08/02 09:44:04;;;;;;;6.78;6.17;;;;;;;29.57;46.34;98879.44;1640492;87;25696;-59
2022/08/02 09:46:40;;;;;;;6.72;6.12;;;;;;;29.37;46.19;98878.23;1640563;87;25599;-59
2022/08/02 09:49:19;;;;;;;6.92;6.22;;;;;;;29.55;47.52;98877.02;1640534;87;27877;-58
2022/08/02 09:51:51;;;;;;;6.37;5.70;;;;;;;29.65;46.83;98883.05;1640548;87;25624;-59
2022/08/02 09:54:28;;;;;;;6.22;5.30;;;;;;;29.49;48.01;98874.54;1640666;87;25619;-58
2022/08/02 09:57:00;;;;;;;5.78;5.35;;;;;;;29.12;47.87;98873.13;1640670;87;25693;-58
2022/08/02 09:59:29;;;;;;;6.12;5.53;;;;;;;28.74;47.58;98877.11;1640795;87;25660;-59
2022/08/02 10:01:58;;;;;;;5.87;5.37;;;;;;;28.18;48.12;98874.48;1640653;87;27458;-58
2022/08/02 10:04:31;;;;;;;6.20;5.70;;;;;;;28.01;49.35;98865.75;1640582;87;25599;-58
2022/08/02 10:07:02;;;;;;;5.62;5.20;;;;;;;28.11;49.65;98864.76;1640521;87;25658;-58
2022/08/02 10:09:27;;;;;;;6.15;5.62;;;;;;;27.99;50.56;98864.77;1640311;87;25619;-58
2022/08/02 10:11:54;;;;;;;6.17;5.70;;;;;;;28.17;50.27;98860.23;1640628;87;25421;-58
2022/08/02 10:14:22;;;;;;;5.87;5.37;;;;;;;28.46;49.35;98856.73;1640772;87;27622;-58
2022/08/02 10:16:49;;;;;;;6.00;5.50;;;;;;;29.04;49.47;98854.95;1640369;87;25627;-59
2022/08/02 10:19:16;;;;;;;5.90;5.40;;;;;;;29.25;47.61;98859.97;1640492;87;25484;-58
2022/08/02 10:22:01;;;;;;;6.58;5.42;;;;;;;29.67;49.13;98854.38;1640313;87;25861;-58
2022/08/02 10:24:31;;;;;;;5.37;4.97;;;;;;;29.78;48.12;98860.56;1640801;87;25510;-58
2022/08/02 10:26:59;;;;;;;7.42;5.50;;;;;;;29.59;47.13;98860.84;1640957;87;27540;-58
2022/08/02 10:29:37;;;;;;;5.90;5.20;;;;;;;29.34;47.24;98862.78;1640563;87;25678;-58
2022/08/02 10:32:16;;;;;;;5.50;5.00;;;;;;;29.27;47.15;98859.53;1640798;87;25686;-58
2022/08/02 10:34:56;;;;;;;4.90;4.50;;;;;;;29.53;46.95;98859.74;1645659;86;25759;-58
2022/08/02 10:37:30;;;;;;;5.35;4.80;;;;;;;30.12;44.25;98856.30;1646502;86;25695;-59
2022/08/02 10:39:58;;;;;;;5.40;3.85;;;;;;;30.11;46.27;98863.19;1640645;87;26921;-58
2022/08/02 10:42:45;;;;;;;3.62;3.27;;;;;;;30.64;44.31;98858.77;1640325;87;25698;-58
2022/08/02 10:45:18;;;;;;;4.30;3.90;;;;;;;31.00;44.12;98859.77;1608926;88;25662;-58
2022/08/02 10:48:16;;;;;;;4.05;3.60;;;;;;;31.30;42.44;98849.79;1608851;89;26660;-59
2022/08/02 10:50:51;;;;;;;5.80;3.77;;;;;;;31.49;41.38;98847.22;1602042;89;25501;-58
2022/08/02 10:53:33;;;;;;;4.00;3.70;;;;;;;31.46;41.56;98841.05;1595335;88;27598;-58
2022/08/02 10:56:05;;;;;;;4.40;3.92;;;;;;;31.72;41.56;98847.48;1595183;89;25906;-58
2022/08/02 10:58:33;;;;;;;5.37;3.92;;;;;;;31.59;41.11;98852.34;1595216;89;25510;-58
2022/08/02 11:01:31;;;;;;;3.92;3.62;;;;;;;31.09;41.71;98851.25;1595365;89;25783;-58
2022/08/02 11:03:59;;;;;;;3.95;3.65;;;;;;;30.81;42.67;98850.23;1595109;89;25757;-58
2022/08/02 11:06:27;;;;;;;4.78;3.62;;;;;;;30.88;41.96;98852.84;1595343;89;27411;-58
2022/08/02 11:09:33;;;;;;;4.08;3.30;;;;;;;30.83;43.31;98853.42;1592367;88;25778;-58
2022/08/02 11:12:10;;;;;;;3.47;3.17;;;;;;;30.70;42.62;98853.95;1594898;89;25743;-58
2022/08/02 11:14:40;;;;;;;3.75;3.10;;;;;;;30.91;40.92;98844.10;1590630;89;25799;-58
2022/08/02 11:17:09;;;;;;;;;;;;;;;31.08;42.11;98849.03;1605947;88;25835;-58
2022/08/02 11:20:10;;;;;;;3.15;2.60;;;;;;;31.23;40.33;98843.72;1621125;88;27595;-58
2022/08/02 11:22:40;;;;;;;3.52;2.98;;;;;;;31.66;40.51;98844.41;1656353;86;25596;-58
2022/08/02 11:25:25;;;;;;;;;;;;;;;31.78;39.41;98839.20;1675376;85;25630;-59
2022/08/02 11:28:00;;;;;;;3.87;3.47;;;;;;;31.48;40.65;98840.75;1637759;87;25721;-58
2022/08/02 11:30:27;;;;;;;3.10;2.90;;;;;;;31.46;41.88;98842.46;1613645;87;26181;-58
2022/08/02 11:32:58;;;;;;;5.00;3.40;;;;;;;31.38;42.96;98844.11;1633133;87;27368;-58
2022/08/02 11:35:39;;;;;;;3.08;2.77;;;;;;;31.33;42.32;98841.80;1633384;87;25608;-59
2022/08/02 11:38:18;;;;;;;3.92;2.95;;;;;;;30.92;41.30;98845.68;1633446;87;25627;-58
2022/08/02 11:40:47;;;;;;;6.55;3.00;;;;;;;31.28;40.90;98842.36;1633670;87;25706;-58
2022/08/02 11:43:25;;;;;;;2.67;2.47;;;;;;;31.72;40.82;98838.98;1633542;87;25493;-58
2022/08/02 11:45:55;;;;;;;3.60;3.30;;;;;;;31.98;39.95;98846.66;1633143;87;28060;-58
2022/08/02 11:48:34;;;;;;;4.28;3.00;;;;;;;31.78;40.12;98847.05;1633474;87;25826;-58
2022/08/02 11:51:16;;;;;;;3.22;2.50;;;;;;;31.67;41.26;98847.44;1633234;87;25687;-61
2022/08/02 11:53:48;;;;;;;3.27;2.27;;;;;;;31.98;40.25;98844.63;1624336;87;25840;-58